Terminal Aerodrome Forecast
Issued by NWS Atlanta, GA

Home | Current Version | Previous Version | Text Only | Print | Product List | Glossary On
Versions: 1 2 3 4 5 6 7 8 9 10 11 12 13 14 15 16 17 18 19 20 21 22 23 24 25 26 27 28 29
000
FTAK31 PAJN 280104 AAA
TAFAHN
TAF AMD
PAHN 280104Z 2801/2824 26011KT P6SM SCT090
     FM281500 31012G16KT P6SM SCT090
     FM282100 21008KT P6SM BKN090
      AMD LTD TO CLD VIS AND WIND=

USA.gov is the U.S. government's official web portal to all federal, state and local government web resources and services.